Time;durP1;ratioP1;P1;durP2;ratioP2;P2;SDS_P1;SDS_P2;PMS_P1;PMS_P2;Temp;Humidity;BMP_temperature;BMP_pressure;BME280_temperature;BME280_humidity;BME280_pressure;Samples;Min_cycle;Max_cycle;Signal;HPM_P1;HPM_P2
2022/08/14 00:00:08;;;;;;;1.80;1.70;;;;;;;21.27;38.44;96840.44;4943013;28;20264;-75
2022/08/14 00:02:34;;;;;;;2.08;1.88;;;;;;;21.38;38.06;96838.94;4927708;28;20133;-75
2022/08/14 00:04:59;;;;;;;1.88;1.77;;;;;;;21.33;38.25;96831.97;4912098;28;20306;-75
2022/08/14 00:07:24;;;;;;;1.85;1.75;;;;;;;21.44;38.00;96834.25;4928152;28;20186;-75
2022/08/14 00:09:50;;;;;;;2.13;1.90;;;;;;;21.65;37.70;96836.91;4940076;28;20782;-75
2022/08/14 00:12:15;;;;;;;2.30;2.00;;;;;;;21.91;37.71;96828.72;4895816;28;20898;-75
2022/08/14 00:14:41;;;;;;;3.30;1.50;;;;;;;22.04;37.37;96834.84;4912189;28;20288;-74
2022/08/14 00:17:06;;;;;;;1.95;1.77;;;;;;;22.00;37.39;96834.72;4927702;28;20267;-75
2022/08/14 00:19:31;;;;;;;1.75;1.63;;;;;;;22.00;37.49;96828.63;4925367;28;20188;-74
2022/08/14 00:21:57;;;;;;;1.75;1.65;;;;;;;21.95;37.42;96834.94;4916432;28;20195;-75
2022/08/14 00:24:23;;;;;;;2.08;1.85;;;;;;;21.91;37.50;96826.06;4944666;28;20219;-75
2022/08/14 00:26:49;;;;;;;1.85;1.75;;;;;;;21.95;38.06;96832.28;4944586;28;20300;-75
2022/08/14 00:29:14;;;;;;;2.30;2.08;;;;;;;21.92;37.97;96818.88;4913874;28;20213;-74
2022/08/14 00:31:40;;;;;;;2.45;2.25;;;;;;;21.91;38.59;96814.69;4906660;28;20213;-75
2022/08/14 00:34:05;;;;;;;2.15;1.95;;;;;;;21.93;39.02;96809.84;4912419;28;20685;-75
2022/08/14 00:36:30;;;;;;;3.20;1.80;;;;;;;22.02;38.99;96806.00;4942695;28;20275;-75
2022/08/14 00:38:56;;;;;;;2.10;2.00;;;;;;;22.14;38.63;96793.84;4928029;28;20229;-75
2022/08/14 00:41:21;;;;;;;2.30;2.20;;;;;;;22.05;38.97;96783.34;4910755;28;20840;-75
2022/08/14 00:43:47;;;;;;;3.00;2.70;;;;;;;21.95;38.84;96770.50;4910834;28;20283;-75
2022/08/14 00:46:12;;;;;;;2.80;2.60;;;;;;;21.90;39.23;96763.56;4925231;28;20625;-75
2022/08/14 00:48:38;;;;;;;3.75;2.40;;;;;;;21.94;39.42;96755.72;4927315;28;20181;-75
2022/08/14 00:51:09;;;;;;;3.85;2.65;;;;;;;21.91;39.80;96748.44;4943275;28;20749;-75
2022/08/14 00:53:36;;;;;;;2.60;2.38;;;;;;;22.16;39.64;96752.66;4911548;28;20189;-75
2022/08/14 00:56:03;;;;;;;2.80;2.55;;;;;;;22.25;39.68;96755.97;4911908;28;20424;-75
2022/08/14 00:58:31;;;;;;;2.92;2.60;;;;;;;22.39;39.87;96752.25;4928022;28;20273;-75
2022/08/14 01:01:03;;;;;;;2.92;2.72;;;;;;;22.37;40.27;96749.94;4907600;28;20640;-75
2022/08/14 01:03:28;;;;;;;3.40;2.55;;;;;;;22.53;40.13;96747.38;4939966;28;20694;-75
2022/08/14 01:05:55;;;;;;;2.75;2.55;;;;;;;22.63;40.07;96752.25;4904010;28;20171;-74
2022/08/14 01:08:30;;;;;;;2.90;2.70;;;;;;;22.56;39.82;96744.06;4927348;28;20284;-75
2022/08/14 01:10:56;;;;;;;2.70;2.50;;;;;;;22.73;39.86;96732.44;4911466;28;20686;-74
2022/08/14 01:13:25;;;;;;;3.22;2.90;;;;;;;22.81;40.36;96744.81;4910302;28;20349;-75
2022/08/14 01:15:53;;;;;;;3.38;2.83;;;;;;;22.90;40.18;96752.66;4895483;28;20240;-75
2022/08/14 01:21:06;;;;;;;3.20;2.90;;;;;;;22.98;39.78;96749.09;4913276;28;20687;-75
2022/08/14 01:23:41;;;;;;;3.33;2.85;;;;;;;22.90;40.07;96747.34;4911145;28;20170;-75
2022/08/14 01:26:07;;;;;;;2.78;2.58;;;;;;;23.10;40.16;96739.56;4927680;28;20797;-75
2022/08/14 01:28:36;;;;;;;3.08;2.88;;;;;;;23.13;40.28;96738.91;4926828;28;20236;-75
2022/08/14 01:31:08;;;;;;;3.42;2.67;;;;;;;23.05;39.99;96727.28;4927844;28;20265;-75
2022/08/14 01:33:39;;;;;;;3.30;3.00;;;;;;;23.10;40.08;96715.69;4929347;28;20615;-75
2022/08/14 01:36:06;;;;;;;3.05;2.80;;;;;;;23.07;40.26;96719.03;4931931;28;20643;-75
2022/08/14 01:38:35;;;;;;;3.45;3.15;;;;;;;23.07;40.47;96719.03;4914986;28;20700;-75
2022/08/14 01:41:06;;;;;;;3.17;2.92;;;;;;;23.02;40.53;96717.34;4931146;28;20189;-75
2022/08/14 01:43:38;;;;;;;3.38;3.08;;;;;;;22.97;40.74;96714.91;4913436;28;20647;-74
2022/08/14 01:46:05;;;;;;;3.13;2.90;;;;;;;23.02;40.71;96712.03;4927859;28;20190;-75
2022/08/14 01:48:32;;;;;;;3.53;3.20;;;;;;;23.03;40.88;96718.09;4911278;28;20592;-75
2022/08/14 01:51:01;;;;;;;3.80;3.15;;;;;;;23.02;41.08;96714.69;4895207;28;20222;-75
2022/08/14 01:53:27;;;;;;;3.30;3.00;;;;;;;23.02;41.00;96712.03;4925807;28;20769;-75
2022/08/14 01:55:56;;;;;;;3.33;3.03;;;;;;;22.97;40.84;96718.34;4930809;28;20313;-75
2022/08/14 01:58:28;;;;;;;2.88;2.60;;;;;;;23.03;40.60;96718.09;4914825;28;20289;-75
2022/08/14 02:00:55;;;;;;;4.15;2.97;;;;;;;22.96;41.33;96705.41;4915630;28;20185;-75
2022/08/14 02:03:24;;;;;;;3.63;3.33;;;;;;;22.93;41.67;96704.22;4933498;28;20196;-75
2022/08/14 02:05:50;;;;;;;3.95;2.83;;;;;;;22.91;41.35;96706.44;4898051;28;20131;-75
2022/08/14 02:08:15;;;;;;;2.85;2.60;;;;;;;22.87;41.50;96697.56;4929384;28;20240;-75
2022/08/14 02:10:41;;;;;;;3.90;3.20;;;;;;;22.77;41.97;96695.38;4928843;28;20217;-75
2022/08/14 02:13:07;;;;;;;3.10;2.80;;;;;;;22.72;41.76;96696.41;4913305;28;20199;-75
2022/08/14 02:15:33;;;;;;;3.83;2.67;;;;;;;22.61;41.91;96690.78;4910427;28;20295;-75
2022/08/14 02:18:03;;;;;;;3.58;2.90;;;;;;;22.52;41.94;96690.13;4928430;28;20321;-75
2022/08/14 02:20:32;;;;;;;3.20;3.00;;;;;;;22.41;42.00;96683.72;4912037;28;20268;-75
2022/08/14 02:22:59;;;;;;;3.40;3.10;;;;;;;22.42;42.09;96688.69;4930447;28;20639;-75
2022/08/14 02:25:24;;;;;;;3.45;3.15;;;;;;;22.41;42.43;96697.00;4928458;28;20347;-75
2022/08/14 02:27:50;;;;;;;3.70;3.40;;;;;;;22.33;42.83;96696.00;4909201;28;20354;-75
2022/08/14 02:30:15;;;;;;;3.03;2.83;;;;;;;22.29;42.58;96694.34;4929929;28;20251;-75
2022/08/14 02:32:40;;;;;;;3.60;3.30;;;;;;;22.23;42.70;96693.78;4946244;28;20255;-75
2022/08/14 02:35:14;;;;;;;3.40;3.10;;;;;;;22.14;43.03;96696.53;4933708;28;20182;-75
2022/08/14 02:37:39;;;;;;;3.17;2.88;;;;;;;22.12;43.00;96693.44;4931027;28;20185;-75
2022/08/14 02:40:05;;;;;;;3.00;2.80;;;;;;;22.06;43.09;96694.75;4913507;28;20213;-75
2022/08/14 02:42:31;;;;;;;3.45;3.10;;;;;;;22.05;43.29;96698.50;4919354;28;20196;-75
2022/08/14 02:44:57;;;;;;;3.75;2.97;;;;;;;21.98;43.41;96687.69;4910273;28;20258;-75
2022/08/14 02:47:22;;;;;;;3.78;3.40;;;;;;;22.00;43.47;96696.06;4929213;28;20731;-75
2022/08/14 02:49:48;;;;;;;3.30;3.00;;;;;;;21.95;43.45;96693.63;4929579;28;20659;-74
2022/08/14 02:52:13;;;;;;;3.85;3.33;;;;;;;21.91;44.03;96693.53;4897790;28;20296;-75
2022/08/14 02:54:39;;;;;;;3.45;3.15;;;;;;;21.92;43.62;96689.00;4927688;28;20205;-75
2022/08/14 02:57:05;;;;;;;3.22;2.92;;;;;;;21.91;43.91;96687.47;4893685;28;20260;-75
2022/08/14 02:59:31;;;;;;;3.40;3.10;;;;;;;21.89;44.08;96695.75;4926059;28;20676;-75
2022/08/14 03:01:57;;;;;;;3.50;3.20;;;;;;;21.84;44.10;96683.47;4913313;28;20646;-75
2022/08/14 03:04:25;;;;;;;3.63;3.22;;;;;;;21.77;44.33;96677.94;4917993;28;20174;-75
2022/08/14 03:06:50;;;;;;;4.05;3.35;;;;;;;21.74;44.36;96675.94;4910126;28;20628;-75
2022/08/14 03:09:16;;;;;;;3.70;3.40;;;;;;;21.67;44.44;96676.47;4938430;28;20262;-75
2022/08/14 03:11:43;;;;;;;3.20;2.90;;;;;;;21.61;44.45;96680.47;4934707;28;20152;-75
2022/08/14 03:14:10;;;;;;;3.95;3.30;;;;;;;21.59;44.31;96673.94;4928155;28;20271;-75
2022/08/14 03:16:35;;;;;;;3.95;3.58;;;;;;;21.60;44.46;96678.13;4939330;28;20227;-75
2022/08/14 03:19:02;;;;;;;3.22;2.92;;;;;;;21.56;44.82;96675.38;4894957;28;20252;-75
2022/08/14 03:21:30;;;;;;;4.15;3.65;;;;;;;21.60;44.74;96667.53;4896778;28;20197;-75
2022/08/14 03:24:11;;;;;;;3.90;3.47;;;;;;;21.51;44.84;96663.09;4928728;28;20205;-75
2022/08/14 03:26:42;;;;;;;3.10;2.90;;;;;;;21.44;44.85;96662.84;4911077;28;20242;-75
2022/08/14 03:29:09;;;;;;;3.60;3.30;;;;;;;21.53;45.07;96668.06;4909695;28;20218;-75
2022/08/14 03:31:37;;;;;;;4.00;3.38;;;;;;;21.52;45.13;96655.91;4910867;28;20696;-74
2022/08/14 03:34:03;;;;;;;3.58;3.28;;;;;;;21.49;45.27;96657.38;4929682;28;20195;-75
2022/08/14 03:36:31;;;;;;;4.00;3.60;;;;;;;21.38;45.71;96650.91;4931267;28;20208;-75
2022/08/14 03:38:58;;;;;;;3.67;3.38;;;;;;;21.23;46.15;96654.16;4913117;28;20280;-75
2022/08/14 03:41:25;;;;;;;3.92;3.53;;;;;;;21.13;45.72;96645.53;4928788;28;20272;-75
2022/08/14 03:43:59;;;;;;;3.60;3.30;;;;;;;21.02;45.96;96649.69;4926743;28;20193;-75
2022/08/14 03:46:26;;;;;;;4.43;4.03;;;;;;;21.05;45.89;96643.75;4940816;28;20340;-75
2022/08/14 03:48:53;;;;;;;4.28;3.70;;;;;;;21.07;45.74;96646.81;4944898;28;20149;-75
2022/08/14 03:51:19;;;;;;;4.10;3.67;;;;;;;20.99;46.01;96645.06;4944715;28;20203;-74
2022/08/14 03:53:46;;;;;;;4.68;3.65;;;;;;;20.87;46.69;96650.28;4925022;28;20267;-74
2022/08/14 03:56:13;;;;;;;6.35;3.83;;;;;;;20.71;47.33;96637.63;4926901;28;20283;-75
2022/08/14 03:58:44;;;;;;;4.60;4.20;;;;;;;20.52;47.74;96646.00;4946444;28;20174;-74
2022/08/14 04:01:11;;;;;;;3.85;3.50;;;;;;;20.53;47.70;96646.78;4928029;28;20265;-74
2022/08/14 04:03:36;;;;;;;4.20;3.85;;;;;;;20.54;47.27;96651.72;4920205;28;20265;-75
2022/08/14 04:06:02;;;;;;;4.30;3.90;;;;;;;20.53;47.40;96650.19;4919406;28;20178;-74
2022/08/14 04:08:28;;;;;;;4.22;3.83;;;;;;;20.52;47.83;96653.16;4928223;28;20242;-74
2022/08/14 04:10:55;;;;;;;4.22;3.83;;;;;;;20.48;47.80;96652.25;4927226;28;20647;-74
2022/08/14 04:13:20;;;;;;;4.22;3.83;;;;;;;20.46;47.67;96652.59;4908585;28;20209;-75
2022/08/14 04:15:46;;;;;;;3.95;3.65;;;;;;;20.44;47.56;96648.69;4916338;28;20193;-75
2022/08/14 04:18:12;;;;;;;4.10;3.80;;;;;;;20.39;47.63;96644.34;4925186;28;20283;-75
2022/08/14 04:20:39;;;;;;;4.47;4.10;;;;;;;20.29;47.90;96644.72;4907107;28;20249;-74
2022/08/14 04:23:05;;;;;;;4.43;4.03;;;;;;;20.30;48.64;96639.13;4928521;28;20676;-75
2022/08/14 04:25:36;;;;;;;5.00;3.95;;;;;;;20.23;48.35;96638.09;4911041;28;20225;-75
2022/08/14 04:28:05;;;;;;;5.03;4.28;;;;;;;20.25;48.92;96635.91;4928490;28;20255;-75
2022/08/14 04:30:35;;;;;;;4.85;4.13;;;;;;;20.28;48.97;96630.75;4928072;28;20279;-75
2022/08/14 04:33:01;;;;;;;4.47;4.07;;;;;;;20.26;49.09;96642.75;4933140;28;20761;-75
2022/08/14 04:35:26;;;;;;;4.40;3.88;;;;;;;20.23;49.06;96643.38;4936367;28;20276;-75
2022/08/14 04:43:35;;;;;;;4.10;3.60;;;;;;;20.26;48.83;96645.38;4930678;28;20623;-74
2022/08/14 04:46:01;;;;;;;5.63;4.15;;;;;;;20.25;49.41;96641.94;4887566;28;20339;-74
2022/08/14 04:48:27;;;;;;;4.60;4.18;;;;;;;20.19;49.70;96648.53;4927627;28;20948;-74
2022/08/14 04:50:52;;;;;;;5.20;4.55;;;;;;;20.22;49.16;96634.69;4927349;28;20186;-74
2022/08/14 04:53:20;;;;;;;4.80;4.20;;;;;;;20.27;48.91;96642.44;4927914;28;20361;-75
2022/08/14 04:55:47;;;;;;;4.25;3.90;;;;;;;20.33;48.92;96649.06;4907662;28;20310;-74
2022/08/14 04:58:18;;;;;;;4.28;3.90;;;;;;;20.33;49.26;96646.41;4908715;28;20210;-74
2022/08/14 05:00:45;;;;;;;4.25;3.85;;;;;;;20.45;48.80;96644.97;4891628;28;20201;-74
2022/08/14 05:03:11;;;;;;;4.40;3.88;;;;;;;20.51;48.72;96641.81;4935186;28;20708;-74
2022/08/14 05:05:38;;;;;;;4.63;4.13;;;;;;;20.55;49.26;96650.63;4943294;28;20174;-75
2022/08/14 05:08:11;;;;;;;5.03;4.32;;;;;;;20.48;49.47;96647.75;4930757;28;20358;-74
2022/08/14 05:10:45;;;;;;;5.45;4.95;;;;;;;20.50;49.28;96652.72;4914320;28;20698;-74
2022/08/14 05:13:12;;;;;;;4.85;3.95;;;;;;;20.61;48.97;96655.75;4930958;28;20193;-74
2022/08/14 05:15:39;;;;;;;4.70;4.28;;;;;;;20.66;49.08;96653.69;4947330;28;20228;-74
2022/08/14 05:18:14;;;;;;;5.32;4.03;;;;;;;20.58;49.13;96651.88;4928591;28;20208;-74
2022/08/14 05:20:45;;;;;;;5.05;4.40;;;;;;;20.58;49.24;96649.25;4948207;28;20196;-74
2022/08/14 05:23:15;;;;;;;5.15;4.65;;;;;;;20.55;49.41;96652.53;4898478;28;20167;-74
2022/08/14 05:25:41;;;;;;;4.88;4.45;;;;;;;20.69;49.45;96650.41;4884042;28;20192;-74
2022/08/14 05:28:10;;;;;;;4.28;3.78;;;;;;;20.76;49.29;96647.25;4938295;28;20190;-74
2022/08/14 05:30:37;;;;;;;5.10;4.45;;;;;;;20.77;49.46;96641.66;4910068;28;20305;-74
2022/08/14 05:33:02;;;;;;;4.80;4.25;;;;;;;20.81;49.59;96643.66;4895002;28;20703;-74
2022/08/14 05:35:28;;;;;;;4.75;4.35;;;;;;;20.89;49.01;96634.88;4913531;28;20694;-74
2022/08/14 05:37:53;;;;;;;4.75;4.35;;;;;;;20.95;49.00;96638.84;4898993;28;20329;-74
2022/08/14 05:40:19;;;;;;;5.13;4.20;;;;;;;21.04;48.97;96636.13;4930627;28;20232;-75
2022/08/14 05:42:44;;;;;;;4.70;4.20;;;;;;;21.08;49.57;96632.50;4914865;28;20174;-75
2022/08/14 05:45:11;;;;;;;4.95;4.55;;;;;;;21.20;49.20;96634.41;4912875;28;20210;-75
2022/08/14 05:47:40;;;;;;;4.80;4.40;;;;;;;21.20;49.16;96638.94;4930892;28;20186;-74
2022/08/14 05:50:13;;;;;;;5.15;4.63;;;;;;;21.24;49.28;96639.84;4896738;28;20257;-75
2022/08/14 05:52:38;;;;;;;4.28;3.97;;;;;;;21.50;48.80;96631.66;4930139;28;20221;-74
2022/08/14 05:55:07;;;;;;;7.60;5.03;;;;;;;21.49;48.56;96617.63;4931095;28;20283;-74
2022/08/14 05:57:32;;;;;;;5.10;4.68;;;;;;;21.61;48.57;96616.88;4898483;28;20196;-75
2022/08/14 05:59:58;;;;;;;5.95;5.00;;;;;;;21.64;48.64;96620.72;4914171;28;20668;-74
2022/08/14 06:02:23;;;;;;;5.10;4.60;;;;;;;21.74;48.51;96614.22;4914265;28;20632;-74
2022/08/14 06:04:48;;;;;;;6.53;4.72;;;;;;;21.82;48.29;96603.53;4915060;28;20702;-74
2022/08/14 06:07:14;;;;;;;4.68;4.20;;;;;;;21.95;47.95;96603.50;4928881;28;20174;-75
2022/08/14 06:09:39;;;;;;;5.60;4.15;;;;;;;22.00;48.05;96601.44;4929665;28;20245;-75
2022/08/14 06:12:06;;;;;;;4.93;4.43;;;;;;;22.12;47.85;96599.88;4930790;28;20647;-75
2022/08/14 06:14:35;;;;;;;4.78;4.38;;;;;;;22.21;47.62;96601.28;4894215;28;20231;-75
2022/08/14 06:17:00;;;;;;;5.05;4.65;;;;;;;22.36;47.41;96599.88;4929045;28;20576;-74
2022/08/14 06:19:25;;;;;;;5.40;4.00;;;;;;;22.50;46.94;96599.50;4911215;28;20193;-75
2022/08/14 06:21:54;;;;;;;4.70;4.30;;;;;;;22.49;47.10;96594.53;4914100;28;20772;-75
2022/08/14 06:24:19;;;;;;;5.65;4.25;;;;;;;22.72;46.77;96597.41;4929278;28;20207;-75
2022/08/14 06:26:45;;;;;;;4.88;4.40;;;;;;;22.82;46.53;96596.94;4947467;28;20201;-74
2022/08/14 06:29:14;;;;;;;4.78;4.28;;;;;;;22.97;46.43;96588.25;4930517;28;20201;-75
2022/08/14 06:31:40;;;;;;;4.68;4.28;;;;;;;23.04;46.22;96592.22;4929352;28;20201;-75
2022/08/14 06:34:05;;;;;;;5.28;4.70;;;;;;;23.18;45.60;96576.66;4930499;28;20175;-75
2022/08/14 06:36:34;;;;;;;4.78;4.20;;;;;;;23.25;45.48;96568.09;4946270;28;20313;-75
2022/08/14 06:38:59;;;;;;;5.88;4.93;;;;;;;23.34;45.48;96572.16;4948538;28;20173;-75
2022/08/14 06:41:24;;;;;;;4.90;4.50;;;;;;;23.45;45.06;96574.28;4946015;28;20693;-75
2022/08/14 06:43:50;;;;;;;5.18;3.90;;;;;;;23.53;44.59;96570.69;4916797;28;20329;-75
2022/08/14 06:46:16;;;;;;;5.10;4.60;;;;;;;23.63;44.70;96570.19;4897160;28;20430;-75
2022/08/14 06:48:41;;;;;;;4.57;4.18;;;;;;;23.85;44.03;96568.03;4913104;28;20221;-74
2022/08/14 06:51:07;;;;;;;4.13;3.83;;;;;;;24.08;43.72;96562.84;4909683;28;20660;-74
2022/08/14 06:53:32;;;;;;;4.40;4.00;;;;;;;24.21;43.51;96561.56;4946130;28;20653;-74
2022/08/14 06:55:57;;;;;;;4.40;4.00;;;;;;;24.41;42.96;96567.69;4913306;28;20627;-74
2022/08/14 06:58:23;;;;;;;4.40;4.00;;;;;;;24.57;42.38;96564.22;4897067;28;20646;-75
2022/08/14 07:06:23;;;;;;;4.05;3.75;;;;;;;25.38;40.84;96574.84;4946880;28;20221;-74
2022/08/14 07:08:50;;;;;;;4.05;3.58;;;;;;;25.56;40.18;96566.34;4928677;28;20026;-74
2022/08/14 07:11:16;;;;;;;3.92;3.63;;;;;;;25.86;39.86;96569.09;4913023;28;20655;-74
2022/08/14 07:13:42;;;;;;;4.20;3.90;;;;;;;26.00;39.42;96565.91;4897349;28;20271;-75
2022/08/14 07:16:11;;;;;;;4.32;3.92;;;;;;;26.24;39.03;96566.59;4910945;28;20186;-74
2022/08/14 07:18:37;;;;;;;5.10;4.00;;;;;;;26.31;38.83;96570.09;4945182;28;20203;-75
2022/08/14 07:21:09;;;;;;;4.05;3.75;;;;;;;26.48;38.24;96570.69;4899637;28;20593;-74
2022/08/14 07:23:35;;;;;;;4.10;3.50;;;;;;;26.69;38.06;96570.19;4894179;28;20273;-75
2022/08/14 07:26:01;;;;;;;3.78;3.47;;;;;;;26.88;37.57;96562.00;4944269;28;20619;-74
2022/08/14 07:28:31;;;;;;;3.88;3.58;;;;;;;27.15;36.74;96555.78;4901864;28;20363;-75
2022/08/14 07:30:58;;;;;;;3.92;3.60;;;;;;;27.44;36.22;96557.56;4938101;28;20720;-75
2022/08/14 07:33:28;;;;;;;3.58;3.30;;;;;;;27.45;36.29;96555.66;4921099;28;20218;-74
2022/08/14 07:35:56;;;;;;;5.15;3.50;;;;;;;27.62;36.24;96560.41;4928214;28;20273;-75
2022/08/14 07:38:22;;;;;;;3.83;3.10;;;;;;;27.74;35.99;96551.28;4928816;28;20135;-74
2022/08/14 07:40:49;;;;;;;6.07;3.33;;;;;;;28.01;35.33;96554.53;4903617;28;20170;-75
2022/08/14 07:43:15;;;;;;;4.63;3.20;;;;;;;28.18;34.99;96553.09;4937479;28;20177;-75
2022/08/14 07:45:41;;;;;;;3.75;2.95;;;;;;;28.39;34.24;96551.66;4918497;28;20692;-74
2022/08/14 07:48:07;;;;;;;3.70;3.38;;;;;;;28.80;33.95;96546.06;4937676;28;20264;-74
2022/08/14 07:50:33;;;;;;;4.32;3.15;;;;;;;28.74;33.56;96542.25;4904104;28;20189;-75
2022/08/14 07:52:58;;;;;;;4.00;3.30;;;;;;;29.23;32.51;96542.72;4922740;28;20196;-74
2022/08/14 07:55:24;;;;;;;2.75;2.55;;;;;;;29.61;30.47;96551.13;4919207;28;20230;-74
2022/08/14 07:57:50;;;;;;;2.53;2.30;;;;;;;29.83;29.28;96546.53;4903506;28;20304;-74
2022/08/14 08:00:23;;;;;;;2.10;2.00;;;;;;;30.11;29.10;96555.66;4919801;28;20276;-75
2022/08/14 08:02:53;;;;;;;3.38;2.30;;;;;;;30.31;28.62;96548.69;4925098;28;20205;-75
2022/08/14 08:05:20;;;;;;;2.45;2.25;;;;;;;30.69;28.01;96551.63;4912201;28;20205;-75
2022/08/14 08:07:46;;;;;;;2.40;2.20;;;;;;;30.92;27.84;96555.72;4910473;28;20188;-75
2022/08/14 08:10:30;;;;;;;3.05;2.20;;;;;;;30.87;27.33;96562.28;4931459;28;20165;-75
2022/08/14 08:13:15;;;;;;;2.83;2.00;;;;;;;31.35;26.75;96558.88;4914295;28;20197;-75
2022/08/14 08:15:52;;;;;;;3.60;2.65;;;;;;;31.58;25.42;96562.19;4895384;28;20481;-75
2022/08/14 08:18:22;;;;;;;2.65;2.45;;;;;;;31.76;25.81;96554.72;4926230;28;20274;-75
2022/08/14 08:20:51;;;;;;;3.05;2.17;;;;;;;32.18;24.73;96552.00;4911992;28;20651;-75
2022/08/14 08:23:17;;;;;;;2.47;2.35;;;;;;;32.17;24.46;96543.16;4947871;28;20640;-75
2022/08/14 08:25:48;;;;;;;2.08;1.98;;;;;;;32.24;24.72;96540.38;4903726;28;20876;-75
2022/08/14 08:28:17;;;;;;;2.20;2.00;;;;;;;32.28;24.66;96545.72;4925692;28;20730;-75
2022/08/14 08:30:47;;;;;;;2.40;2.20;;;;;;;31.86;25.12;96548.47;4926767;28;20297;-74
2022/08/14 08:33:15;;;;;;;2.60;2.40;;;;;;;31.82;25.62;96545.03;4909897;28;20279;-74
2022/08/14 08:35:41;;;;;;;2.78;2.45;;;;;;;31.78;25.60;96547.00;5032022;23;20637;-75
2022/08/14 08:38:09;;;;;;;2.55;2.28;;;;;;;31.77;27.03;96555.47;4960309;28;20108;-73
2022/08/14 08:40:40;;;;;;;3.20;2.03;;;;;;;32.34;24.86;96549.50;4974976;28;21750;-74
2022/08/14 08:43:07;;;;;;;3.17;2.38;;;;;;;32.60;24.79;96550.75;4973628;28;20040;-73
2022/08/14 08:45:34;;;;;;;2.60;2.40;;;;;;;32.98;24.40;96547.91;4953746;28;20033;-73
2022/08/14 08:48:00;;;;;;;3.03;2.83;;;;;;;32.99;24.24;96552.13;4942721;28;20759;-75
2022/08/14 08:50:33;;;;;;;2.45;2.25;;;;;;;32.80;23.85;96550.09;4949626;28;20103;-75
2022/08/14 08:53:01;;;;;;;2.30;2.20;;;;;;;33.06;23.81;96553.97;4976770;28;20766;-74
2022/08/14 08:55:28;;;;;;;2.85;2.58;;;;;;;33.43;24.52;96551.50;4960351;28;20032;-74
2022/08/14 09:00:32;;;;;;;2.40;2.20;;;;;;;34.10;23.01;96541.44;5211476;22;20189;-75
2022/08/14 09:03:04;;;;;;;2.58;2.38;;;;;;;34.44;21.36;96536.94;4950507;28;20611;-75
2022/08/14 09:05:31;;;;;;;2.30;2.20;;;;;;;34.51;21.58;96524.03;4933364;28;20282;-74
2022/08/14 09:08:19;;;;;;;3.15;2.50;;;;;;;34.37;21.26;96520.88;4950318;28;20208;-75
2022/08/14 09:10:46;;;;;;;2.58;2.38;;;;;;;34.66;21.46;96523.72;4967520;28;20183;-75
2022/08/14 09:13:15;;;;;;;3.10;2.83;;;;;;;34.68;20.79;96524.06;4964452;28;20243;-75
2022/08/14 09:15:44;;;;;;;2.67;2.55;;;;;;;35.02;21.45;96525.66;4950055;28;20212;-75
2022/08/14 09:18:10;;;;;;;2.97;2.78;;;;;;;34.86;21.59;96524.44;4930362;28;20165;-74
2022/08/14 09:20:41;;;;;;;3.03;2.75;;;;;;;34.56;21.80;96524.72;4940789;28;20516;-74
2022/08/14 09:23:10;;;;;;;3.50;2.83;;;;;;;34.60;21.28;96525.38;4963728;28;20282;-74
2022/08/14 09:25:36;;;;;;;3.17;2.67;;;;;;;34.78;21.45;96538.56;4949802;28;20078;-75
2022/08/14 09:28:03;;;;;;;3.03;2.83;;;;;;;34.96;21.16;96546.25;4968154;28;20716;-75
2022/08/14 09:30:30;;;;;;;2.65;2.55;;;;;;;35.23;20.01;96538.69;4923763;28;20283;-74
2022/08/14 09:33:02;;;;;;;2.75;2.55;;;;;;;35.31;20.90;96541.22;4930811;28;20238;-75
2022/08/14 09:35:58;;;;;;;2.70;2.53;;;;;;;35.05;20.73;96543.75;4969893;28;20288;-75
2022/08/14 09:38:42;;;;;;;2.70;2.50;;;;;;;35.23;20.66;96536.00;4976220;28;20634;-75
2022/08/14 09:41:45;;;;;;;3.28;3.05;;;;;;;35.21;19.78;96538.34;4954064;28;20598;-74
2022/08/14 09:44:53;;;;;;;2.97;2.78;;;;;;;35.34;20.71;96527.59;4934899;28;20272;-75
2022/08/14 09:47:20;;;;;;;2.83;2.63;;;;;;;36.12;19.96;96525.97;4904843;28;20200;-75
2022/08/14 09:49:46;;;;;;;2.70;2.58;;;;;;;36.30;19.83;96518.13;4949311;28;20207;-75
2022/08/14 09:52:13;;;;;;;3.00;2.70;;;;;;;36.46;19.14;96519.25;4916583;28;20627;-75
2022/08/14 09:54:46;;;;;;;3.00;2.75;;;;;;;36.16;18.58;96513.84;4929808;28;20568;-75
2022/08/14 09:57:24;;;;;;;2.72;2.53;;;;;;;35.68;18.94;96509.34;4940323;28;20165;-76
2022/08/14 09:59:50;;;;;;;2.88;2.40;;;;;;;36.36;18.42;96502.88;4938402;28;20280;-75
2022/08/14 10:02:34;;;;;;;2.58;2.38;;;;;;;35.93;18.90;96487.03;4938325;28;20402;-75
2022/08/14 10:05:11;;;;;;;3.13;2.35;;;;;;;36.13;18.34;96484.16;4929484;28;20292;-75
2022/08/14 10:07:50;;;;;;;3.10;2.90;;;;;;;36.32;18.48;96474.34;4912588;28;20193;-76
2022/08/14 10:10:38;;;;;;;2.92;2.72;;;;;;;36.43;18.84;96458.50;4951291;28;20329;-75
2022/08/14 10:13:08;;;;;;;3.05;2.85;;;;;;;36.78;18.23;96457.88;4915343;28;20187;-75
2022/08/14 10:15:44;;;;;;;3.20;3.00;;;;;;;36.52;18.53;96469.47;4896684;28;20225;-75
2022/08/14 10:18:15;;;;;;;2.85;2.65;;;;;;;36.61;17.84;96468.06;4896770;28;20355;-74
2022/08/14 10:20:59;;;;;;;3.97;2.88;;;;;;;36.45;18.14;96466.19;4911915;28;20348;-74
2022/08/14 10:23:42;;;;;;;5.15;3.10;;;;;;;36.51;18.70;96459.78;4922351;28;20679;-74
2022/08/14 10:26:08;;;;;;;3.13;2.92;;;;;;;36.99;18.10;96472.69;4923191;28;20269;-76
2022/08/14 10:28:41;;;;;;;3.35;3.15;;;;;;;36.69;18.42;96458.47;4943802;28;20212;-74
2022/08/14 10:31:32;;;;;;;3.00;2.80;;;;;;;36.77;18.20;96453.63;4947800;28;20323;-75
2022/08/14 10:34:01;;;;;;;3.60;3.17;;;;;;;36.98;17.51;96447.50;4946672;28;20268;-75
2022/08/14 10:36:43;;;;;;;2.92;2.60;;;;;;;37.31;18.08;96444.50;4912959;28;20293;-74
2022/08/14 10:39:16;;;;;;;3.17;2.97;;;;;;;37.14;18.04;96437.69;4927627;28;20276;-75
2022/08/14 10:41:43;;;;;;;3.47;3.20;;;;;;;37.30;17.44;96429.41;4958716;28;20639;-75
2022/08/14 10:44:16;;;;;;;3.25;3.05;;;;;;;37.30;18.00;96423.97;4938666;28;20225;-75
2022/08/14 10:46:52;;;;;;;4.22;3.50;;;;;;;37.29;17.92;96422.44;4922377;28;20205;-75
2022/08/14 10:49:22;;;;;;;2.92;2.67;;;;;;;37.05;17.98;96414.72;4934690;28;20584;-75
2022/08/14 10:52:24;;;;;;;3.42;3.13;;;;;;;36.29;18.42;96412.84;4905983;28;20242;-75
2022/08/14 10:54:51;;;;;;;3.95;3.28;;;;;;;36.54;18.80;96420.22;4939290;28;20249;-75
2022/08/14 10:57:25;;;;;;;3.45;3.22;;;;;;;36.22;19.03;96416.53;4938661;28;20151;-76
2022/08/14 10:59:54;;;;;;;3.15;2.85;;;;;;;35.87;18.68;96407.47;4921311;28;20220;-75
2022/08/14 11:02:28;;;;;;;3.10;2.90;;;;;;;35.65;19.14;96402.63;4955352;28;20704;-74
2022/08/14 11:05:11;;;;;;;2.80;2.70;;;;;;;35.86;19.24;96412.13;4921260;28;20205;-74
2022/08/14 11:07:39;;;;;;;3.08;2.88;;;;;;;36.33;18.46;96416.97;4922224;28;20264;-74
2022/08/14 11:10:11;;;;;;;3.08;2.80;;;;;;;36.32;18.26;96420.88;4920016;28;20292;-74
2022/08/14 11:12:48;;;;;;;3.30;3.10;;;;;;;36.17;18.55;96420.50;4912996;28;20717;-74
2022/08/14 11:15:18;;;;;;;2.78;2.63;;;;;;;36.87;17.71;96425.41;4916133;28;20204;-74
2022/08/14 11:17:47;;;;;;;3.65;3.33;;;;;;;37.40;17.83;96419.38;4928815;28;20192;-75
2022/08/14 11:20:16;;;;;;;3.10;2.90;;;;;;;37.03;18.33;96416.34;4932558;28;20316;-75
2022/08/14 11:22:41;;;;;;;3.60;3.30;;;;;;;36.66;18.39;96424.09;4933880;28;20204;-75
2022/08/14 11:25:09;;;;;;;3.38;3.13;;;;;;;36.68;18.74;96425.19;4923581;28;20244;-75
2022/08/14 11:27:37;;;;;;;3.88;3.58;;;;;;;36.07;19.08;96431.66;4928753;28;20110;-75
2022/08/14 11:30:06;;;;;;;3.60;3.40;;;;;;;36.43;18.46;96422.50;4928522;28;20242;-75
2022/08/14 11:33:35;;;;;;;3.97;3.67;;;;;;;36.29;18.64;96415.56;5063785;27;20421;-75
2022/08/14 11:36:04;;;;;;;3.28;2.97;;;;;;;36.51;18.84;96418.38;5062767;27;20294;-74
2022/08/14 11:38:37;;;;;;;2.80;2.60;;;;;;;36.64;17.14;96408.28;5010379;27;20289;-75
2022/08/14 11:41:04;;;;;;;2.87;2.67;;;;;;;36.42;17.84;96415.56;5043023;27;20196;-74
2022/08/14 11:43:29;;;;;;;3.88;3.58;;;;;;;35.58;19.41;96411.72;5040940;27;20650;-76
2022/08/14 11:45:55;;;;;;;3.80;3.50;;;;;;;35.15;19.53;96406.66;5024285;28;20298;-74
2022/08/14 11:48:25;;;;;;;3.05;2.85;;;;;;;35.07;18.60;96409.53;5037335;27;20183;-74
2022/08/14 11:50:54;;;;;;;3.25;2.95;;;;;;;35.67;19.08;96407.63;5021220;27;20180;-74
2022/08/14 11:53:30;;;;;;;4.10;2.90;;;;;;;35.71;18.53;96400.16;5028496;27;20180;-75
2022/08/14 11:56:01;;;;;;;3.25;2.75;;;;;;;36.15;18.74;96397.75;5043973;27;20214;-74
2022/08/14 11:58:34;;;;;;;2.75;2.58;;;;;;;35.73;17.98;96386.97;5026731;28;20103;-74